Latest Weather Observations for Ernabella/Pukatja

IDS60801

Issued at 5:31 am CDT Wednesday 25 January 2017 (issued every 30 minutes, with the page automatically refreshed every 10 minutes)

About weather observations | Map of weather stations | Latest weather observations for SA | Other Formats
Station Details ID: 016097 Name: PUKATJA Lat: -26.26 Lon: 132.18 Height: 703.2 m
Data from the previous 72 hours. | See also: Recent months at Ernabella/Pukatja
Date/Time
CDT
Temp
°C
App
Temp
°C
Dew
Point
°C
Rel
Hum
%
Delta-T
°C
Wind Press
QNH
hPa
Press
MSL
hPa
Rain since
9am
mm
Dir  Spd
km/h
Gust
km/h
Spd
kts
Gust
kts
25/05:30am 19.5 20.4 19.2 98 0.2 ESE 13 19 7 10 1018.5 1013.1 7.0
25/05:00am 19.6 20.9 19.3 98 0.2 ESE 11 17 6 9 1018.1 1012.8 7.0
25/04:30am 19.6 20.9 19.3 98 0.2 ESE 11 19 6 10 1018.1 1012.8 7.0
25/04:00am 19.6 20.1 19.3 98 0.2 SE 15 20 8 11 1018.0 1012.7 7.0
25/03:30am 19.4 20.7 19.4 100 0.0 SE 11 20 6 11 1018.1 1012.8 7.0
25/03:00am 19.2 20.8 19.2 100 0.0 SE 9 13 5 7 1018.3 1013.0 7.0
25/02:30am 19.1 20.3 19.1 100 0.0 SSE 11 19 6 10 1018.3 1013.0 6.8
25/02:00am 19.1 20.7 19.1 100 0.0 SSE 9 17 5 9 1018.6 1013.2 6.8
25/01:30am 19.0 19.8 19.0 100 0.0 SSE 13 20 7 11 1018.5 1013.1 6.8
25/01:00am 18.8 19.9 18.8 100 0.0 SE 11 19 6 10 1018.6 1013.2 6.8
25/12:30am 18.7 18.2 18.7 100 0.0 SSE 19 26 10 14 1018.8 1013.5 6.8
25/12:00am 18.9 19.3 18.9 100 0.0 SSE 15 20 8 11 1018.9 1013.6 6.6
 
Date/Time
CDT
Temp
°C
App
Temp
°C
Dew
Point
°C
Rel
Hum
%
Delta-T
°C
Wind Press
QNH
hPa
Press
MSL
hPa
Rain since
9am
mm
Dir  Spd
km/h
Gust
km/h
Spd
kts
Gust
kts
24/11:30pm 19.1 19.2 19.1 100 0.0 SSE 17 24 9 13 1018.8 1013.5 6.6
24/11:00pm 19.2 20.5 19.2 100 0.0 SE 11 19 6 10 1018.7 1013.4 6.4
24/10:30pm 19.2 19.6 19.0 99 0.1 SE 15 24 8 13 1018.5 1013.1 6.4
24/10:00pm 19.3 19.4 19.1 99 0.1 SE 17 24 9 13 1018.1 1012.8 6.4
24/09:30pm 19.4 19.9 19.2 99 0.1 SE 15 20 8 11 1017.9 1012.6 6.4
24/09:00pm 19.6 20.6 19.4 99 0.1 SE 13 20 7 11 1017.8 1012.5 6.4
24/08:30pm 19.6 20.2 19.4 99 0.1 SE 15 19 8 10 1017.6 1012.3 6.4
24/08:00pm 19.7 20.3 19.4 98 0.2 SSE 15 22 8 12 1017.1 1011.7 6.4
24/07:30pm 19.9 21.0 19.6 98 0.2 SSE 13 19 7 10 1016.5 1011.2 6.4
24/07:00pm 20.0 20.3 19.7 98 0.2 SE 17 26 9 14 1016.1 1010.8 6.4
24/06:30pm 19.6 20.1 19.3 98 0.2 SSE 15 20 8 11 1015.9 1010.5 6.4
24/06:00pm 20.1 20.5 19.8 98 0.2 S 17 24 9 13 1015.7 1010.3 6.4
24/05:30pm 20.2 19.9 19.2 94 0.6 S 19 28 10 15 1015.6 1010.2 6.4
24/05:00pm 20.1 20.1 19.8 98 0.2 S 19 26 10 14 1015.8 1010.4 6.4
24/04:30pm 20.4 21.3 20.1 98 0.2 S 15 26 8 14 1016.0 1010.7 6.4
24/04:00pm 20.5 20.8 19.7 95 0.5 S 17 20 9 11 1016.1 1010.8 6.4
24/03:30pm 20.5 21.1 19.5 94 0.7 S 15 24 8 13 1016.2 1010.9 6.4
24/03:00pm 20.4 20.8 19.1 92 0.8 S 15 20 8 11 1016.4 1011.1 6.4
24/02:30pm 20.0 20.3 19.7 98 0.2 S 17 24 9 13 1016.6 1011.3 6.4
24/02:00pm 20.0 20.0 19.7 98 0.2 S 19 28 10 15 1016.6 1011.3 6.4
24/01:30pm 19.4 19.1 19.1 98 0.2 SSE 19 28 10 15 1017.1 1011.7 6.4
24/01:00pm 19.6 20.1 19.3 98 0.2 S 15 20 8 11 1017.2 1011.8 6.0
24/12:30pm 19.5 19.1 19.3 99 0.1 S 20 30 11 16 1017.3 1011.9 6.0
24/12:00pm 19.1 17.7 18.9 99 0.1 S 24 32 13 17 1017.3 1011.9 5.8
24/11:30am 18.9 17.8 18.7 99 0.1 S 22 28 12 15 1017.3 1011.9 5.6
24/11:00am 19.2 18.7 19.0 99 0.1 S 20 30 11 16 1017.2 1011.8 5.4
24/10:30am 19.1 18.7 18.9 99 0.1 SSW 19 28 10 15 1017.0 1011.6 5.0
24/10:00am 19.6 20.1 19.3 98 0.2 SSW 15 26 8 14 1016.7 1011.4 3.6
24/09:30am 19.2 18.3 19.0 99 0.1 S 22 30 12 16 1016.5 1011.2 2.0
24/09:00am 19.3 17.7 19.1 99 0.1 S 26 39 14 21 1016.6 1011.3 7.4
24/08:30am 19.5 18.3 19.2 98 0.2 S 24 37 13 20 1016.2 1010.9 5.8
24/08:00am 19.7 17.5 19.5 99 0.1 S 30 43 16 23 1015.5 1010.1 5.0
24/07:30am 20.2 18.5 19.9 98 0.2 S 28 39 15 21 1014.7 1009.4 4.0
24/07:00am 21.4 21.9 21.2 99 0.1 S 20 28 11 15 1014.1 1008.7 4.0
24/06:30am 21.5 21.7 21.3 99 0.1 SSW 22 33 12 18 1013.4 1008.1 3.8
24/06:00am 21.9 22.8 21.6 98 0.2 S 19 26 10 14 1013.2 1007.8 3.4
24/05:30am 22.0 23.3 21.7 98 0.2 S 17 26 9 14 1013.1 1007.7 3.4
24/05:00am 21.7 23.3 21.5 99 0.1 SSE 15 22 8 12 1013.0 1007.6 3.4
24/04:30am 21.4 21.5 21.2 99 0.1 SE 22 33 12 18 1012.9 1007.5 3.0
24/04:00am 21.9 22.2 21.6 98 0.2 SSE 22 35 12 19 1013.0 1007.6 2.8
24/03:30am 22.9 24.7 22.6 98 0.2 SSE 17 24 9 13 1012.6 1007.2 1.6
24/03:00am 22.9 25.4 22.4 97 0.3 SSE 13 20 7 11 1012.7 1007.3 1.6
24/02:30am 23.2 23.2 20.9 87 1.5 S 22 32 12 17 1012.7 1007.3 1.6
24/02:00am 23.3 23.6 20.8 86 1.7 S 20 37 11 20 1012.8 1007.4 1.6
24/01:30am 23.4 23.6 20.5 84 1.9 SSW 20 35 11 19 1013.0 1007.6 1.6
24/01:00am 23.3 24.1 20.6 85 1.8 SSW 17 26 9 14 1013.0 1007.6 1.6
24/12:30am 23.3 23.5 20.6 85 1.8 S 20 32 11 17 1013.1 1007.7 1.6
24/12:00am 23.1 24.0 20.8 87 1.5 SW 17 28 9 15 1013.0 1007.6 1.6
 
Date/Time
CDT
Temp
°C
App
Temp
°C
Dew
Point
°C
Rel
Hum
%
Delta-T
°C
Wind Press
QNH
hPa
Press
MSL
hPa
Rain since
9am
mm
Dir  Spd
km/h
Gust
km/h
Spd
kts
Gust
kts
23/11:30pm 23.0 21.7 20.7 87 1.5 SSW 28 41 15 22 1012.8 1007.4 1.6
23/11:00pm 23.5 22.3 20.0 81 2.3 SSW 26 41 14 22 1013.1 1007.7 1.6
23/10:30pm 23.4 20.4 19.8 80 2.4 SSW 35 50 19 27 1013.0 1007.6 1.6
23/10:00pm 23.4 20.6 20.2 82 2.1 SSW 35 54 19 29 1012.6 1007.2 1.6
23/09:30pm 23.1 20.2 20.1 83 2.0 SSW 35 56 19 30 1012.2 1006.9 1.6
23/09:15pm 22.4 21.0 21.9 97 0.3 SW 32 50 17 27 1012.2 1006.9 1.6
23/09:00pm 22.8 20.3 20.9 89 1.3 SW 35 50 19 27 1011.8 1006.4 1.6
23/08:30pm 23.5 22.9 22.7 95 0.6 SW 30 44 16 24 1011.5 1006.1 1.4
23/08:22pm 24.3 23.6 21.8 86 1.7 SSW 28 44 15 24 1011.3 1005.9 1.0
23/08:07pm 26.4 26.6 20.5 70 4.0 ESE 20 61 11 33 1010.6 1005.2 1.0
23/08:00pm 28.3 29.2 17.5 52 7.0 NNE 9 17 5 9 1009.8 1004.4 1.0
23/07:30pm 30.2 32.7 21.8 60 5.8 SW 11 15 6 8 1009.2 1003.8 1.0
23/07:00pm 31.1 34.4 21.9 58 6.4 WSW 7 13 4 7 1008.7 1003.3 1.0
23/06:30pm 32.4 35.4 21.9 54 7.3 W 9 17 5 9 1008.3 1002.9 1.0
23/06:00pm 32.3 34.5 21.2 52 7.7 WNW 11 15 6 8 1008.1 1002.6 1.0
23/05:30pm 31.8 33.9 19.4 47 8.4 W 7 15 4 8 1007.6 1002.2 1.0
23/05:00pm 31.9 35.1 21.7 54 7.1 SSW 7 13 4 7 1007.9 1002.4 1.0
23/04:30pm 31.2 33.0 21.1 55 6.9 WNW 13 17 7 9 1008.4 1003.0 1.0
23/04:00pm 30.7 32.2 21.2 57 6.5 WNW 15 20 8 11 1008.7 1003.3 1.0
23/03:30pm 29.6 30.6 21.8 63 5.4 NW 19 24 10 13 1009.4 1003.9 1.0
23/03:00pm 28.8 30.6 21.1 63 5.3 WNW 13 22 7 12 1010.2 1004.8 1.0
23/02:30pm 27.3 28.8 21.3 69 4.1 WNW 15 22 8 12 1010.7 1005.3 1.0
23/02:00pm 27.2 28.3 21.2 69 4.1 WNW 17 20 9 11 1011.1 1005.7 1.0
23/01:30pm 26.5 27.7 21.5 74 3.4 WNW 17 22 9 12 1011.3 1005.9 0.8
23/01:00pm 26.3 29.0 22.8 81 2.4 NNW 13 17 7 9 1011.6 1006.2 0.8
23/12:30pm 25.3 29.2 23.0 87 1.6 N 7 9 4 5 1012.0 1006.6 0.8
23/12:00pm 24.4 28.3 23.0 92 1.0 WSW 7 11 4 6 1012.5 1007.1 0.8
23/11:30am 23.5 27.0 22.1 92 1.0 W 7 9 4 5 1012.7 1007.3 0.8
23/11:00am 22.5 26.6 22.2 98 0.2 NNW 4 11 2 6 1012.8 1007.4 0.8
23/10:30am 22.1 25.6 21.9 99 0.1 NNW 6 11 3 6 1013.0 1007.6 0.8
23/10:00am 22.1 24.7 21.9 99 0.1 NNW 11 17 6 9 1012.9 1007.5 0.2
23/09:30am 22.1 26.9 22.1 100 0.0 CALM 0 6 0 3 1012.8 1007.4 0.2
23/09:00am 22.0 24.6 22.0 100 0.0 ENE 11 15 6 8 1012.8 1007.4 24.4
23/08:30am 22.2 25.2 22.0 99 0.1 NE 9 15 5 8 1012.7 1007.3 23.8
23/08:00am 22.0 25.0 22.0 100 0.0 E 9 13 5 7 1012.6 1007.2 23.0
23/07:30am 21.9 25.7 21.7 99 0.1 NE 4 7 2 4 1011.6 1006.2 22.0
23/07:00am 21.9 25.4 21.9 100 0.0 W 6 9 3 5 1010.2 1004.8 20.4
23/06:30am 21.7 25.1 21.7 100 0.0 NNE 6 11 3 6 1011.0 1005.6 19.4
23/06:00am 21.8 23.8 21.6 99 0.1 NNW 13 19 7 10 1011.1 1005.7 17.8
23/05:30am 21.9 23.2 21.7 99 0.1 WNW 17 24 9 13 1010.2 1004.8 15.6
23/05:00am 22.0 22.0 21.7 98 0.2 WSW 24 32 13 17 1009.8 1004.4 12.8
23/04:30am 22.6 22.2 22.3 98 0.2 SW 28 44 15 24 1009.5 1004.1 3.2
23/04:00am 22.2 20.7 22.0 99 0.1 SW 33 52 18 28 1009.5 1004.1 2.4
23/03:56am 22.3 21.0 22.1 99 0.1 SW 32 52 17 28 1009.4 1003.9 1.0
23/03:30am 23.5 22.5 21.9 91 1.1 SW 30 39 16 21 1009.7 1004.3 0.0
23/03:00am 24.8 23.8 21.3 81 2.4 SW 28 39 15 21 1009.5 1004.1 0.0
23/02:30am 26.0 26.5 21.9 78 2.8 SW 22 41 12 22 1009.4 1003.9 0.0
23/02:00am 27.3 31.3 22.7 76 3.2 N 6 6 3 3 1009.1 1003.7 0.0
23/01:30am 27.8 30.3 21.1 67 4.6 SE 9 13 5 7 1009.2 1003.8 0.0
23/01:00am 28.1 33.5 23.2 74 3.4 CALM 0 0 0 0 1010.1 1004.7 0.0
23/12:30am 27.9 32.1 23.1 75 3.4 ENE 6 7 3 4 1010.4 1005.0 0.0
23/12:00am 27.8 31.2 22.7 74 3.6 ENE 9 11 5 6 1010.6 1005.2 0.0
 
Date/Time
CDT
Temp
°C
App
Temp
°C
Dew
Point
°C
Rel
Hum
%
Delta-T
°C
Wind Press
QNH
hPa
Press
MSL
hPa
Rain since
9am
mm
Dir  Spd
km/h
Gust
km/h
Spd
kts
Gust
kts
22/11:30pm 28.1 31.1 21.9 69 4.3 E 9 11 5 6 1010.6 1005.2 0.0
22/11:00pm 28.5 30.5 21.5 66 4.8 E 13 15 7 8 1010.6 1005.2 0.0
22/10:30pm 28.8 30.7 22.1 67 4.6 E 15 20 8 11 1010.7 1005.3 0.0
22/10:00pm 28.7 31.4 22.2 68 4.5 ESE 11 11 6 6 1010.4 1005.0 0.0
22/09:30pm 29.4 31.8 21.6 63 5.4 N 11 13 6 7 1010.2 1004.8 0.0
22/09:00pm 29.6 32.6 22.6 66 4.9 ESE 11 17 6 9 1009.6 1004.2 0.0
22/08:30pm 30.1 32.4 22.0 62 5.6 SE 13 17 7 9 1008.8 1003.4 0.0
22/08:00pm 30.7 32.9 21.8 59 6.2 ESE 13 17 7 9 1008.8 1003.4 0.0
22/07:30pm 31.7 32.9 21.5 54 7.1 SE 17 22 9 12 1008.5 1003.1 0.0
22/07:00pm 32.6 33.6 21.1 50 7.9 SE 17 24 9 13 1008.4 1003.0 0.0
22/06:30pm 35.1 35.9 18.2 36 11.3 WNW 11 17 6 9 1008.5 1003.1 0.0
22/06:00pm 35.2 36.8 19.1 38 10.9 WSW 9 15 5 8 1008.6 1003.2 0.0
22/05:30pm 34.8 34.9 19.2 39 10.6 WNW 17 24 9 13 1008.7 1003.3 0.0
22/05:00pm 33.9 34.9 20.3 45 9.3 NNW 15 24 8 13 1008.9 1003.5 0.0
22/04:30pm 34.6 35.2 19.4 40 10.3 NW 15 24 8 13 1009.4 1003.9 0.0
22/04:00pm 33.1 34.3 19.9 45 9.0 NW 13 22 7 12 1009.8 1004.4 0.0
22/03:30pm 34.1 35.7 20.8 45 9.2 NW 13 20 7 11 1010.2 1004.8 0.0
22/03:00pm 33.6 33.7 20.0 44 9.3 WNW 19 28 10 15 1010.7 1005.3 0.0
22/02:30pm 33.4 34.1 21.2 48 8.4 NW 19 28 10 15 1011.2 1005.8 0.0
22/02:00pm 33.2 34.2 21.0 48 8.4 NNW 17 22 9 12 1011.6 1006.2 0.0
22/01:30pm 32.6 33.1 21.1 50 7.9 N 20 26 11 14 1011.8 1006.4 0.0
22/01:00pm 31.6 31.8 20.5 51 7.6 N 20 28 11 15 1012.1 1006.8 0.0
22/12:30pm 32.0 33.4 21.8 54 7.1 NNW 17 28 9 15 1012.5 1007.1 0.0
22/12:00pm 30.5 31.7 20.7 55 6.7 N 15 24 8 13 1012.6 1007.2 0.0
22/11:30am 30.6 32.7 21.7 59 6.2 NNW 13 22 7 12 1012.8 1007.4 0.0
22/11:00am 29.9 31.3 21.8 62 5.6 N 17 24 9 13 1012.9 1007.5 0.0
22/10:30am 28.8 30.5 21.6 65 5.0 N 15 20 8 11 1013.0 1007.6 0.0
22/10:00am 28.4 29.1 21.2 65 4.9 NNW 19 26 10 14 1013.1 1007.7 0.0
22/09:30am 27.6 30.3 21.4 69 4.2 N 9 19 5 10 1013.1 1007.7 0.0
22/09:00am 26.0 29.1 21.4 76 3.1 NNE 7 11 4 6 1013.0 1007.6 2.2
22/08:30am 24.2 27.2 21.3 84 2.0 NE 7 13 4 7 1013.1 1007.7 2.2
22/08:00am 23.5 26.7 21.2 87 1.6 E 6 13 3 7 1013.2 1007.8 2.2
22/07:30am 23.1 25.6 21.0 88 1.4 NNE 9 13 5 7 1012.9 1007.5 2.2
22/07:00am 23.0 25.3 20.7 87 1.5 N 9 11 5 6 1012.7 1007.3 2.2
22/06:30am 23.4 25.5 20.9 86 1.7 N 11 17 6 9 1012.4 1007.0 2.2
22/06:00am 23.5 24.6 20.4 83 2.1 NNE 15 24 8 13 1011.9 1006.5 2.2

Other Formats:

Comma delimited format used in spreadsheet applications
http://www.bom.gov.au/fwo/IDS60801/IDS60801.94474.axf

JavaScript Object Notation format (JSON) in row-major order
http://www.bom.gov.au/fwo/IDS60801/IDS60801.94474.json